sensor_id;sensor_type;location;lat;lon;timestamp;pressure;altitude;pressure_sealevel;temperature;humidity
73817;BME280;62146;53.232;-1.304;2022-12-08T00:01:11;100459.19;;;-1.37;100.00
73817;BME280;62146;53.232;-1.304;2022-12-08T00:03:38;100450.09;;;-1.41;100.00
73817;BME280;62146;53.232;-1.304;2022-12-08T00:06:06;100446.53;;;-1.40;100.00
73817;BME280;62146;53.232;-1.304;2022-12-08T00:08:51;100441.66;;;-1.43;100.00
73817;BME280;62146;53.232;-1.304;2022-12-08T00:11:36;100440.97;;;-1.45;100.00
73817;BME280;62146;53.232;-1.304;2022-12-08T00:14:04;100435.63;;;-1.43;100.00
73817;BME280;62146;53.232;-1.304;2022-12-08T00:16:31;100433.19;;;-1.45;100.00
73817;BME280;62146;53.232;-1.304;2022-12-08T00:18:58;100432.38;;;-1.45;100.00
73817;BME280;62146;53.232;-1.304;2022-12-08T00:21:24;100426.38;;;-1.46;100.00
73817;BME280;62146;53.232;-1.304;2022-12-08T00:23:53;100437.75;;;-1.47;100.00
73817;BME280;62146;53.232;-1.304;2022-12-08T00:26:20;100436.13;;;-1.48;100.00
73817;BME280;62146;53.232;-1.304;2022-12-08T00:28:47;100436.13;;;-1.48;100.00
73817;BME280;62146;53.232;-1.304;2022-12-08T00:31:13;100431.06;;;-1.49;100.00
73817;BME280;62146;53.232;-1.304;2022-12-08T00:33:40;100428.00;;;-1.53;100.00
73817;BME280;62146;53.232;-1.304;2022-12-08T00:36:12;100420.38;;;-1.54;100.00
73817;BME280;62146;53.232;-1.304;2022-12-08T00:38:39;100417.13;;;-1.56;100.00
73817;BME280;62146;53.232;-1.304;2022-12-08T00:41:12;100416.66;;;-1.60;100.00
73817;BME280;62146;53.232;-1.304;2022-12-08T00:43:39;100406.06;;;-1.58;100.00
73817;BME280;62146;53.232;-1.304;2022-12-08T00:46:05;100412.41;;;-1.61;100.00
73817;BME280;62146;53.232;-1.304;2022-12-08T00:48:32;100410.78;;;-1.61;100.00
73817;BME280;62146;53.232;-1.304;2022-12-08T00:50:59;100415.00;;;-1.61;100.00
73817;BME280;62146;53.232;-1.304;2022-12-08T00:53:26;100412.56;;;-1.62;100.00
73817;BME280;62146;53.232;-1.304;2022-12-08T00:55:52;100410.78;;;-1.61;100.00
73817;BME280;62146;53.232;-1.304;2022-12-08T00:58:19;100397.16;;;-1.63;100.00
73817;BME280;62146;53.232;-1.304;2022-12-08T01:00:45;100401.50;;;-1.64;100.00
73817;BME280;62146;53.232;-1.304;2022-12-08T01:03:12;100397.47;;;-1.66;100.00
73817;BME280;62146;53.232;-1.304;2022-12-08T01:05:39;100391.63;;;-1.68;100.00
73817;BME280;62146;53.232;-1.304;2022-12-08T01:08:06;100388.06;;;-1.67;100.00
73817;BME280;62146;53.232;-1.304;2022-12-08T01:10:34;100386.59;;;-1.70;100.00
73817;BME280;62146;53.232;-1.304;2022-12-08T01:13:01;100380.91;;;-1.73;100.00
73817;BME280;62146;53.232;-1.304;2022-12-08T01:15:28;100379.28;;;-1.74;100.00
73817;BME280;62146;53.232;-1.304;2022-12-08T01:17:55;100377.00;;;-1.77;100.00
73817;BME280;62146;53.232;-1.304;2022-12-08T01:20:21;100377.00;;;-1.77;100.00
73817;BME280;62146;53.232;-1.304;2022-12-08T01:22:48;100374.09;;;-1.82;100.00
73817;BME280;62146;53.232;-1.304;2022-12-08T01:25:14;100369.84;;;-1.83;100.00
73817;BME280;62146;53.232;-1.304;2022-12-08T01:27:41;100372.31;;;-1.82;100.00
73817;BME280;62146;53.232;-1.304;2022-12-08T01:30:09;100364.84;;;-1.85;100.00
73817;BME280;62146;53.232;-1.304;2022-12-08T01:32:37;100372.00;;;-1.87;100.00
73817;BME280;62146;53.232;-1.304;2022-12-08T01:35:03;100366.13;;;-1.88;100.00
73817;BME280;62146;53.232;-1.304;2022-12-08T01:37:30;100362.72;;;-1.89;100.00
73817;BME280;62146;53.232;-1.304;2022-12-08T01:39:56;100367.91;;;-1.89;100.00
73817;BME280;62146;53.232;-1.304;2022-12-08T01:42:23;100361.09;;;-1.90;100.00
73817;BME280;62146;53.232;-1.304;2022-12-08T01:44:56;100364.66;;;-1.91;100.00
73817;BME280;62146;53.232;-1.304;2022-12-08T01:47:27;100364.84;;;-1.92;100.00
73817;BME280;62146;53.232;-1.304;2022-12-08T01:49:55;100366.63;;;-1.93;100.00
73817;BME280;62146;53.232;-1.304;2022-12-08T01:52:34;100362.56;;;-1.95;100.00
73817;BME280;62146;53.232;-1.304;2022-12-08T01:55:25;100360.44;;;-2.00;100.00
73817;BME280;62146;53.232;-1.304;2022-12-08T01:58:02;100359.81;;;-2.02;100.00
73817;BME280;62146;53.232;-1.304;2022-12-08T02:00:31;100357.03;;;-2.00;100.00
73817;BME280;62146;53.232;-1.304;2022-12-08T02:02:59;100360.94;;;-2.04;100.00
73817;BME280;62146;53.232;-1.304;2022-12-08T02:05:32;100356.53;;;-2.04;100.00
73817;BME280;62146;53.232;-1.304;2022-12-08T02:08:02;100354.94;;;-2.05;100.00
73817;BME280;62146;53.232;-1.304;2022-12-08T02:10:35;100347.28;;;-2.06;100.00
73817;BME280;62146;53.232;-1.304;2022-12-08T02:13:03;100351.66;;;-2.07;100.00
73817;BME280;62146;53.232;-1.304;2022-12-08T02:15:37;100347.47;;;-2.08;100.00
73817;BME280;62146;53.232;-1.304;2022-12-08T02:30:04;100340.47;;;-2.07;100.00
73817;BME280;62146;53.232;-1.304;2022-12-08T02:35:50;100345.50;;;-2.06;100.00
73817;BME280;62146;53.232;-1.304;2022-12-08T02:43:47;100341.59;;;-2.10;100.00
73817;BME280;62146;53.232;-1.304;2022-12-08T02:46:24;100339.66;;;-2.08;100.00
73817;BME280;62146;53.232;-1.304;2022-12-08T02:48:54;100333.19;;;-2.12;100.00
73817;BME280;62146;53.232;-1.304;2022-12-08T02:51:21;100337.25;;;-2.09;100.00
73817;BME280;62146;53.232;-1.304;2022-12-08T02:53:48;100333.81;;;-2.10;100.00
73817;BME280;62146;53.232;-1.304;2022-12-08T03:07:36;100323.09;;;-2.07;100.00
73817;BME280;62146;53.232;-1.304;2022-12-08T03:10:16;100312.72;;;-2.07;100.00
73817;BME280;62146;53.232;-1.304;2022-12-08T03:12:50;100318.91;;;-2.08;100.00
73817;BME280;62146;53.232;-1.304;2022-12-08T03:15:20;100310.28;;;-2.08;100.00
73817;BME280;62146;53.232;-1.304;2022-12-08T03:17:53;100309.81;;;-2.12;100.00
73817;BME280;62146;53.232;-1.304;2022-12-08T03:20:23;100311.59;;;-2.12;100.00
73817;BME280;62146;53.232;-1.304;2022-12-08T03:22:52;100305.59;;;-2.13;100.00
73817;BME280;62146;53.232;-1.304;2022-12-08T03:25:23;100309.16;;;-2.14;100.00
73817;BME280;62146;53.232;-1.304;2022-12-08T03:27:51;100310.94;;;-2.14;100.00
73817;BME280;62146;53.232;-1.304;2022-12-08T03:30:18;100313.69;;;-2.15;100.00
73817;BME280;62146;53.232;-1.304;2022-12-08T03:32:53;100307.84;;;-2.17;100.00
73817;BME280;62146;53.232;-1.304;2022-12-08T03:35:30;100305.72;;;-2.22;100.00
73817;BME280;62146;53.232;-1.304;2022-12-08T03:38:10;100299.75;;;-2.22;100.00
73817;BME280;62146;53.232;-1.304;2022-12-08T03:40:38;100301.53;;;-2.23;100.00
73817;BME280;62146;53.232;-1.304;2022-12-08T03:43:04;100303.94;;;-2.21;100.00
73817;BME280;62146;53.232;-1.304;2022-12-08T03:45:31;100297.31;;;-2.24;100.00
73817;BME280;62146;53.232;-1.304;2022-12-08T03:47:58;100301.69;;;-2.24;100.00
73817;BME280;62146;53.232;-1.304;2022-12-08T03:50:25;100295.34;;;-2.22;100.00
73817;BME280;62146;53.232;-1.304;2022-12-08T03:52:52;100285.94;;;-2.23;100.00
73817;BME280;62146;53.232;-1.304;2022-12-08T03:55:18;100287.75;;;-2.23;100.00
73817;BME280;62146;53.232;-1.304;2022-12-08T03:57:46;100275.75;;;-2.24;100.00
73817;BME280;62146;53.232;-1.304;2022-12-08T04:00:14;100270.88;;;-2.27;100.00
73817;BME280;62146;53.232;-1.304;2022-12-08T04:02:42;100265.81;;;-2.29;100.00
73817;BME280;62146;53.232;-1.304;2022-12-08T04:05:09;100274.44;;;-2.28;100.00
73817;BME280;62146;53.232;-1.304;2022-12-08T04:07:35;100272.78;;;-2.29;100.00
73817;BME280;62146;53.232;-1.304;2022-12-08T04:10:03;100275.41;;;-2.29;100.00
73817;BME280;62146;53.232;-1.304;2022-12-08T04:12:30;100270.38;;;-2.31;100.00
73817;BME280;62146;53.232;-1.304;2022-12-08T04:14:57;100275.56;;;-2.31;100.00
73817;BME280;62146;53.232;-1.304;2022-12-08T04:17:23;100277.03;;;-2.28;100.00
73817;BME280;62146;53.232;-1.304;2022-12-08T04:19:50;100272.78;;;-2.29;100.00
73817;BME280;62146;53.232;-1.304;2022-12-08T04:22:16;100265.81;;;-2.29;100.00
73817;BME280;62146;53.232;-1.304;2022-12-08T04:24:43;100275.41;;;-2.29;100.00
73817;BME280;62146;53.232;-1.304;2022-12-08T04:27:09;100268.28;;;-2.27;100.00
73817;BME280;62146;53.232;-1.304;2022-12-08T04:29:36;100273.47;;;-2.27;100.00
73817;BME280;62146;53.232;-1.304;2022-12-08T04:32:03;100277.66;;;-2.26;100.00
73817;BME280;62146;53.232;-1.304;2022-12-08T04:34:29;100268.28;;;-2.27;100.00
73817;BME280;62146;53.232;-1.304;2022-12-08T04:36:56;100257.88;;;-2.27;100.00
73817;BME280;62146;53.232;-1.304;2022-12-08T04:39:22;100255.28;;;-2.27;100.00
73817;BME280;62146;53.232;-1.304;2022-12-08T04:41:49;100255.28;;;-2.27;100.00
73817;BME280;62146;53.232;-1.304;2022-12-08T04:44:16;100250.25;;;-2.29;100.00
73817;BME280;62146;53.232;-1.304;2022-12-08T04:46:42;100245.72;;;-2.27;100.00
73817;BME280;62146;53.232;-1.304;2022-12-08T04:49:09;100243.28;;;-2.28;100.00
73817;BME280;62146;53.232;-1.304;2022-12-08T04:51:35;100240.69;;;-2.28;100.00
73817;BME280;62146;53.232;-1.304;2022-12-08T04:54:02;100244.59;;;-2.24;100.00
73817;BME280;62146;53.232;-1.304;2022-12-08T04:56:29;100246.22;;;-2.23;100.00
73817;BME280;62146;53.232;-1.304;2022-12-08T04:58:56;100241.81;;;-2.23;100.00
73817;BME280;62146;53.232;-1.304;2022-12-08T05:01:22;100241.50;;;-2.20;100.00
73817;BME280;62146;53.232;-1.304;2022-12-08T05:03:49;100238.72;;;-2.18;100.00
73817;BME280;62146;53.232;-1.304;2022-12-08T05:06:15;100236.00;;;-2.17;100.00
73817;BME280;62146;53.232;-1.304;2022-12-08T05:08:42;100233.22;;;-2.15;100.00
73817;BME280;62146;53.232;-1.304;2022-12-08T05:11:11;100234.84;;;-2.14;100.00
73817;BME280;62146;53.232;-1.304;2022-12-08T05:13:38;100234.19;;;-2.09;100.00
73817;BME280;62146;53.232;-1.304;2022-12-08T05:16:12;100231.59;;;-2.09;100.00
73817;BME280;62146;53.232;-1.304;2022-12-08T05:18:40;100233.03;;;-2.06;100.00
73817;BME280;62146;53.232;-1.304;2022-12-08T05:21:07;100229.31;;;-2.04;100.00
73817;BME280;62146;53.232;-1.304;2022-12-08T05:23:34;100225.91;;;-2.04;100.00
73817;BME280;62146;53.232;-1.304;2022-12-08T05:26:01;100228.31;;;-2.03;100.00
73817;BME280;62146;53.232;-1.304;2022-12-08T05:28:27;100233.50;;;-2.03;100.00
73817;BME280;62146;53.232;-1.304;2022-12-08T05:31:11;100235.16;;;-2.02;100.00
73817;BME280;62146;53.232;-1.304;2022-12-08T05:33:42;100231.56;;;-2.01;100.00
73817;BME280;62146;53.232;-1.304;2022-12-08T05:36:12;100232.72;;;-2.03;100.00
73817;BME280;62146;53.232;-1.304;2022-12-08T05:38:39;100233.19;;;-2.00;100.00
73817;BME280;62146;53.232;-1.304;2022-12-08T05:41:07;100225.41;;;-2.00;100.00
73817;BME280;62146;53.232;-1.304;2022-12-08T05:43:34;100232.38;;;-2.00;100.00
73817;BME280;62146;53.232;-1.304;2022-12-08T05:46:01;100231.25;;;-1.98;100.00
73817;BME280;62146;53.232;-1.304;2022-12-08T05:48:28;100228.00;;;-2.00;100.00
73817;BME280;62146;53.232;-1.304;2022-12-08T05:50:55;100221.19;;;-2.01;100.00
73817;BME280;62146;53.232;-1.304;2022-12-08T05:53:21;100228.00;;;-2.00;100.00
73817;BME280;62146;53.232;-1.304;2022-12-08T05:55:48;100216.16;;;-2.02;100.00
73817;BME280;62146;53.232;-1.304;2022-12-08T05:58:17;100211.31;;;-2.05;100.00
73817;BME280;62146;53.232;-1.304;2022-12-08T06:00:45;100214.53;;;-2.03;100.00
73817;BME280;62146;53.232;-1.304;2022-12-08T06:03:13;100220.72;;;-2.04;100.00
73817;BME280;62146;53.232;-1.304;2022-12-08T06:05:41;100220.72;;;-2.04;100.00
73817;BME280;62146;53.232;-1.304;2022-12-08T06:08:08;100221.84;;;-2.07;100.00
73817;BME280;62146;53.232;-1.304;2022-12-08T06:10:37;100221.50;;;-2.04;100.00
73817;BME280;62146;53.232;-1.304;2022-12-08T06:13:04;100213.06;;;-2.06;100.00
73817;BME280;62146;53.232;-1.304;2022-12-08T06:15:33;100210.47;;;-2.06;100.00
73817;BME280;62146;53.232;-1.304;2022-12-08T06:18:00;100210.47;;;-2.06;100.00
73817;BME280;62146;53.232;-1.304;2022-12-08T06:20:26;100221.50;;;-2.04;100.00
73817;BME280;62146;53.232;-1.304;2022-12-08T06:22:54;100205.28;;;-2.06;100.00
73817;BME280;62146;53.232;-1.304;2022-12-08T06:25:21;100208.84;;;-2.07;100.00
73817;BME280;62146;53.232;-1.304;2022-12-08T06:27:47;100204.81;;;-2.09;100.00
73817;BME280;62146;53.232;-1.304;2022-12-08T06:30:14;100198.66;;;-2.08;100.00
73817;BME280;62146;53.232;-1.304;2022-12-08T06:32:41;100192.66;;;-2.09;100.00
73817;BME280;62146;53.232;-1.304;2022-12-08T06:35:08;100197.66;;;-2.07;100.00
73817;BME280;62146;53.232;-1.304;2022-12-08T06:37:35;100202.84;;;-2.07;100.00
73817;BME280;62146;53.232;-1.304;2022-12-08T06:40:02;100196.19;;;-2.10;100.00
73817;BME280;62146;53.232;-1.304;2022-12-08T06:42:29;100202.38;;;-2.11;100.00
73817;BME280;62146;53.232;-1.304;2022-12-08T06:45:16;100201.09;;;-2.14;100.00
73817;BME280;62146;53.232;-1.304;2022-12-08T06:47:43;100203.69;;;-2.14;100.00
73817;BME280;62146;53.232;-1.304;2022-12-08T06:50:11;100196.88;;;-2.15;100.00
73817;BME280;62146;53.232;-1.304;2022-12-08T06:52:38;100200.44;;;-2.16;100.00
73817;BME280;62146;53.232;-1.304;2022-12-08T06:55:18;100192.19;;;-2.20;100.00
73817;BME280;62146;53.232;-1.304;2022-12-08T06:58:05;100193.13;;;-2.21;100.00
73817;BME280;62146;53.232;-1.304;2022-12-08T07:00:31;100188.91;;;-2.22;100.00
73817;BME280;62146;53.232;-1.304;2022-12-08T07:02:58;100184.88;;;-2.24;100.00
73817;BME280;62146;53.232;-1.304;2022-12-08T07:05:25;100187.00;;;-2.28;100.00
73817;BME280;62146;53.232;-1.304;2022-12-08T07:07:51;100182.94;;;-2.30;100.00
73817;BME280;62146;53.232;-1.304;2022-12-08T07:10:18;100184.06;;;-2.33;100.00
73817;BME280;62146;53.232;-1.304;2022-12-08T07:12:44;100185.03;;;-2.34;100.00
73817;BME280;62146;53.232;-1.304;2022-12-08T07:15:11;100183.75;;;-2.38;100.00
73817;BME280;62146;53.232;-1.304;2022-12-08T07:17:37;100179.88;;;-2.41;100.00
73817;BME280;62146;53.232;-1.304;2022-12-08T07:20:04;100181.47;;;-2.41;100.00
73817;BME280;62146;53.232;-1.304;2022-12-08T07:22:32;100193.81;;;-2.42;100.00
73817;BME280;62146;53.232;-1.304;2022-12-08T07:24:58;100194.63;;;-2.42;100.00
73817;BME280;62146;53.232;-1.304;2022-12-08T07:27:25;100193.00;;;-2.43;100.00
73817;BME280;62146;53.232;-1.304;2022-12-08T07:29:51;100189.63;;;-2.43;100.00
73817;BME280;62146;53.232;-1.304;2022-12-08T07:32:18;100188.16;;;-2.46;100.00
73817;BME280;62146;53.232;-1.304;2022-12-08T07:34:44;100184.88;;;-2.48;100.00
73817;BME280;62146;53.232;-1.304;2022-12-08T07:37:12;100185.72;;;-2.47;100.00
73817;BME280;62146;53.232;-1.304;2022-12-08T07:39:39;100185.88;;;-2.49;100.00
73817;BME280;62146;53.232;-1.304;2022-12-08T07:42:05;100186.84;;;-2.50;100.00
73817;BME280;62146;53.232;-1.304;2022-12-08T07:44:32;100185.72;;;-2.47;100.00
73817;BME280;62146;53.232;-1.304;2022-12-08T07:46:58;100178.88;;;-2.48;100.00
73817;BME280;62146;53.232;-1.304;2022-12-08T07:49:25;100181.47;;;-2.48;100.00
73817;BME280;62146;53.232;-1.304;2022-12-08T07:51:51;100184.25;;;-2.50;100.00
73817;BME280;62146;53.232;-1.304;2022-12-08T07:54:18;100174.84;;;-2.51;100.00
73817;BME280;62146;53.232;-1.304;2022-12-08T07:56:44;100176.66;;;-2.51;100.00
73817;BME280;62146;53.232;-1.304;2022-12-08T07:59:11;100181.16;;;-2.53;100.00
73817;BME280;62146;53.232;-1.304;2022-12-08T08:01:38;100184.09;;;-2.56;100.00
73817;BME280;62146;53.232;-1.304;2022-12-08T08:04:05;100183.94;;;-2.55;100.00
73817;BME280;62146;53.232;-1.304;2022-12-08T08:06:33;100179.06;;;-2.58;100.00
73817;BME280;62146;53.232;-1.304;2022-12-08T08:08:59;100177.47;;;-2.59;100.00
73817;BME280;62146;53.232;-1.304;2022-12-08T08:11:26;100179.22;;;-2.59;100.00
73817;BME280;62146;53.232;-1.304;2022-12-08T08:13:52;100185.38;;;-2.60;100.00
73817;BME280;62146;53.232;-1.304;2022-12-08T08:16:19;100176.78;;;-2.61;100.00
73817;BME280;62146;53.232;-1.304;2022-12-08T08:18:48;100177.09;;;-2.64;100.00
73817;BME280;62146;53.232;-1.304;2022-12-08T08:21:16;100178.75;;;-2.63;100.00
73817;BME280;62146;53.232;-1.304;2022-12-08T08:24:03;100183.94;;;-2.63;100.00
73817;BME280;62146;53.232;-1.304;2022-12-08T08:26:30;100172.59;;;-2.62;100.00
73817;BME280;62146;53.232;-1.304;2022-12-08T08:28:56;100176.63;;;-2.59;100.00
73817;BME280;62146;53.232;-1.304;2022-12-08T08:31:24;100174.19;;;-2.61;100.00
73817;BME280;62146;53.232;-1.304;2022-12-08T08:33:51;100176.63;;;-2.59;100.00
73817;BME280;62146;53.232;-1.304;2022-12-08T08:36:18;100176.78;;;-2.61;100.00
73817;BME280;62146;53.232;-1.304;2022-12-08T08:38:45;100178.41;;;-2.60;100.00
73817;BME280;62146;53.232;-1.304;2022-12-08T08:41:11;100175.81;;;-2.60;100.00
73817;BME280;62146;53.232;-1.304;2022-12-08T08:43:38;100167.06;;;-2.59;100.00
73817;BME280;62146;53.232;-1.304;2022-12-08T08:46:05;100169.50;;;-2.57;100.00
73817;BME280;62146;53.232;-1.304;2022-12-08T08:48:32;100166.09;;;-2.58;100.00
73817;BME280;62146;53.232;-1.304;2022-12-08T08:51:09;100161.06;;;-2.59;100.00
73817;BME280;62146;53.232;-1.304;2022-12-08T08:53:36;100160.91;;;-2.58;100.00
73817;BME280;62146;53.232;-1.304;2022-12-08T08:56:10;100156.84;;;-2.60;100.00
73817;BME280;62146;53.232;-1.304;2022-12-08T08:58:36;100157.50;;;-2.58;100.00
73817;BME280;62146;53.232;-1.304;2022-12-08T09:01:03;100163.50;;;-2.58;100.00
73817;BME280;62146;53.232;-1.304;2022-12-08T09:03:30;100163.50;;;-2.58;100.00
73817;BME280;62146;53.232;-1.304;2022-12-08T09:05:57;100165.13;;;-2.57;100.00
73817;BME280;62146;53.232;-1.304;2022-12-08T09:08:23;100152.81;;;-2.55;100.00
73817;BME280;62146;53.232;-1.304;2022-12-08T09:10:50;100149.22;;;-2.54;100.00
73817;BME280;62146;53.232;-1.304;2022-12-08T09:13:17;100148.44;;;-2.54;100.00
73817;BME280;62146;53.232;-1.304;2022-12-08T09:15:43;100148.91;;;-2.51;100.00
73817;BME280;62146;53.232;-1.304;2022-12-08T09:18:10;100148.25;;;-2.45;100.00
73817;BME280;62146;53.232;-1.304;2022-12-08T09:20:37;100142.56;;;-2.41;100.00
73817;BME280;62146;53.232;-1.304;2022-12-08T09:23:03;100141.41;;;-2.38;100.00
73817;BME280;62146;53.232;-1.304;2022-12-08T09:25:30;100149.69;;;-2.35;100.00
73817;BME280;62146;53.232;-1.304;2022-12-08T09:27:56;100149.38;;;-2.32;100.00
73817;BME280;62146;53.232;-1.304;2022-12-08T09:30:23;100139.47;;;-2.28;100.00
73817;BME280;62146;53.232;-1.304;2022-12-08T09:32:50;100142.38;;;-2.23;100.00
73817;BME280;62146;53.232;-1.304;2022-12-08T09:35:16;100152.25;;;-2.19;100.00
73817;BME280;62146;53.232;-1.304;2022-12-08T09:37:45;100153.22;;;-2.12;100.00
73817;BME280;62146;53.232;-1.304;2022-12-08T09:40:18;100160.31;;;-2.06;100.00
73817;BME280;62146;53.232;-1.304;2022-12-08T09:43:00;100152.88;;;-2.01;100.00
73817;BME280;62146;53.232;-1.304;2022-12-08T09:45:33;100149.78;;;-1.97;100.00
73817;BME280;62146;53.232;-1.304;2022-12-08T09:48:22;100150.88;;;-1.91;100.00
73817;BME280;62146;53.232;-1.304;2022-12-08T09:50:54;100150.72;;;-1.90;100.00
73817;BME280;62146;53.232;-1.304;2022-12-08T09:53:24;100153.63;;;-1.85;100.00
73817;BME280;62146;53.232;-1.304;2022-12-08T09:56:27;100140.59;;;-1.77;100.00
73817;BME280;62146;53.232;-1.304;2022-12-08T09:59:22;100139.94;;;-1.71;100.00
73817;BME280;62146;53.232;-1.304;2022-12-08T10:01:49;100138.63;;;-1.67;100.00
73817;BME280;62146;53.232;-1.304;2022-12-08T10:04:29;100125.94;;;-1.62;100.00
73817;BME280;62146;53.232;-1.304;2022-12-08T10:07:19;100132.56;;;-1.60;100.00
73817;BME280;62146;53.232;-1.304;2022-12-08T10:10:19;100133.50;;;-1.53;100.00
73817;BME280;62146;53.232;-1.304;2022-12-08T10:18:26;100125.78;;;-1.39;100.00
73817;BME280;62146;53.232;-1.304;2022-12-08T10:20:56;100125.13;;;-1.33;100.00
73817;BME280;62146;53.232;-1.304;2022-12-08T10:23:35;100110.63;;;-1.28;100.00
73817;BME280;62146;53.232;-1.304;2022-12-08T10:26:07;100121.16;;;-1.21;100.00
73817;BME280;62146;53.232;-1.304;2022-12-08T10:28:37;100120.63;;;-1.17;100.00
73817;BME280;62146;53.232;-1.304;2022-12-08T10:31:21;100131.13;;;-1.10;100.00
73817;BME280;62146;53.232;-1.304;2022-12-08T10:34:09;100125.59;;;-1.08;100.00
73817;BME280;62146;53.232;-1.304;2022-12-08T10:36:51;100118.53;;;-0.99;100.00
73817;BME280;62146;53.232;-1.304;2022-12-08T10:39:28;100114.59;;;-0.95;100.00
73817;BME280;62146;53.232;-1.304;2022-12-08T10:47:29;100122.31;;;-0.80;100.00
73817;BME280;62146;53.232;-1.304;2022-12-08T10:55:50;100117.75;;;-0.63;100.00
73817;BME280;62146;53.232;-1.304;2022-12-08T10:58:41;100115.28;;;-0.57;100.00
73817;BME280;62146;53.232;-1.304;2022-12-08T11:01:22;100110.00;;;-0.49;100.00
73817;BME280;62146;53.232;-1.304;2022-12-08T11:03:54;100112.69;;;-0.43;100.00
73817;BME280;62146;53.232;-1.304;2022-12-08T11:06:24;100110.44;;;-0.31;100.00
73817;BME280;62146;53.232;-1.304;2022-12-08T11:08:56;100105.59;;;-0.20;100.00
73817;BME280;62146;53.232;-1.304;2022-12-08T11:11:38;100104.72;;;-0.13;100.00
73817;BME280;62146;53.232;-1.304;2022-12-08T11:15:00;100103.47;;;-0.02;100.00
73817;BME280;62146;53.232;-1.304;2022-12-08T11:17:04;100093.56;;;0.07;100.00
73817;BME280;62146;53.232;-1.304;2022-12-08T11:19:37;100102.94;;;0.16;100.00
73817;BME280;62146;53.232;-1.304;2022-12-08T11:22:21;100098.78;;;0.22;100.00
73817;BME280;62146;53.232;-1.304;2022-12-08T11:27:34;100097.22;;;0.41;100.00
73817;BME280;62146;53.232;-1.304;2022-12-08T11:30:30;100091.09;;;0.49;100.00
73817;BME280;62146;53.232;-1.304;2022-12-08T11:33:05;100092.59;;;0.57;100.00
73817;BME280;62146;53.232;-1.304;2022-12-08T11:35:41;100080.84;;;0.68;100.00
73817;BME280;62146;53.232;-1.304;2022-12-08T11:38:17;100086.59;;;0.78;100.00
73817;BME280;62146;53.232;-1.304;2022-12-08T11:41:09;100084.31;;;0.89;100.00
73817;BME280;62146;53.232;-1.304;2022-12-08T11:46:24;100069.63;;;1.08;100.00
73817;BME280;62146;53.232;-1.304;2022-12-08T11:49:00;100063.72;;;1.21;100.00
73817;BME280;62146;53.232;-1.304;2022-12-08T11:51:56;100048.16;;;1.33;100.00
73817;BME280;62146;53.232;-1.304;2022-12-08T11:54:33;100049.28;;;1.52;100.00
73817;BME280;62146;53.232;-1.304;2022-12-08T11:57:03;100045.75;;;1.65;100.00
73817;BME280;62146;53.232;-1.304;2022-12-08T11:59:44;100034.63;;;1.84;100.00
73817;BME280;62146;53.232;-1.304;2022-12-08T12:02:18;100039.53;;;2.00;100.00
73817;BME280;62146;53.232;-1.304;2022-12-08T12:04:57;100029.72;;;2.14;100.00
73817;BME280;62146;53.232;-1.304;2022-12-08T12:10:37;100029.25;;;2.51;100.00
73817;BME280;62146;53.232;-1.304;2022-12-08T12:18:51;100008.97;;;2.91;100.00
73817;BME280;62146;53.232;-1.304;2022-12-08T12:21:36;99998.09;;;3.00;100.00
73817;BME280;62146;53.232;-1.304;2022-12-08T12:24:07;100009.41;;;3.14;100.00
73817;BME280;62146;53.232;-1.304;2022-12-08T12:26:37;100011.41;;;3.24;100.00
73817;BME280;62146;53.232;-1.304;2022-12-08T12:29:10;100012.00;;;3.33;100.00
73817;BME280;62146;53.232;-1.304;2022-12-08T12:31:43;100017.44;;;3.44;100.00
73817;BME280;62146;53.232;-1.304;2022-12-08T12:36:53;100009.34;;;3.58;100.00
73817;BME280;62146;53.232;-1.304;2022-12-08T12:39:27;100003.09;;;3.66;100.00
73817;BME280;62146;53.232;-1.304;2022-12-08T12:41:57;100001.22;;;3.72;100.00
73817;BME280;62146;53.232;-1.304;2022-12-08T12:46:59;99997.97;;;3.90;100.00
73817;BME280;62146;53.232;-1.304;2022-12-08T13:02:28;99980.03;;;4.30;100.00
73817;BME280;62146;53.232;-1.304;2022-12-08T13:05:09;99974.75;;;4.36;100.00
73817;BME280;62146;53.232;-1.304;2022-12-08T13:07:52;99971.06;;;4.44;100.00
73817;BME280;62146;53.232;-1.304;2022-12-08T13:15:40;99959.41;;;4.64;100.00
73817;BME280;62146;53.232;-1.304;2022-12-08T13:21:17;99956.34;;;4.73;100.00
73817;BME280;62146;53.232;-1.304;2022-12-08T13:23:46;99966.63;;;4.75;100.00
73817;BME280;62146;53.232;-1.304;2022-12-08T13:26:25;99959.34;;;4.77;100.00
73817;BME280;62146;53.232;-1.304;2022-12-08T13:34:18;99961.97;;;4.77;100.00
73817;BME280;62146;53.232;-1.304;2022-12-08T13:39:39;99957.94;;;4.74;100.00
73817;BME280;62146;53.232;-1.304;2022-12-08T13:42:18;99959.16;;;4.72;100.00
73817;BME280;62146;53.232;-1.304;2022-12-08T13:48:04;99948.34;;;4.62;100.00
73817;BME280;62146;53.232;-1.304;2022-12-08T13:51:04;99946.34;;;4.57;100.00
73817;BME280;62146;53.232;-1.304;2022-12-08T13:54:26;99947.19;;;4.52;100.00
73817;BME280;62146;53.232;-1.304;2022-12-08T13:57:25;99943.81;;;4.45;100.00
73817;BME280;62146;53.232;-1.304;2022-12-08T13:59:59;99936.97;;;4.37;100.00
73817;BME280;62146;53.232;-1.304;2022-12-08T14:02:29;99934.56;;;4.36;100.00
73817;BME280;62146;53.232;-1.304;2022-12-08T14:04:58;99929.97;;;4.31;100.00
73817;BME280;62146;53.232;-1.304;2022-12-08T14:07:47;99925.56;;;4.26;100.00
73817;BME280;62146;53.232;-1.304;2022-12-08T14:10:18;99920.72;;;4.23;100.00
73817;BME280;62146;53.232;-1.304;2022-12-08T14:12:47;99916.09;;;4.18;100.00
73817;BME280;62146;53.232;-1.304;2022-12-08T14:15:18;99915.72;;;4.15;100.00
73817;BME280;62146;53.232;-1.304;2022-12-08T14:17:53;99914.75;;;4.09;100.00
73817;BME280;62146;53.232;-1.304;2022-12-08T14:20:31;99914.38;;;4.06;100.00
73817;BME280;62146;53.232;-1.304;2022-12-08T14:23:18;99915.00;;;4.01;100.00
73817;BME280;62146;53.232;-1.304;2022-12-08T14:25:46;99918.25;;;3.97;100.00
73817;BME280;62146;53.232;-1.304;2022-12-08T14:28:15;99915.25;;;3.94;100.00
73817;BME280;62146;53.232;-1.304;2022-12-08T14:30:43;99922.72;;;3.90;100.00
73817;BME280;62146;53.232;-1.304;2022-12-08T14:33:14;99926.78;;;3.86;100.00